Time;durP1;ratioP1;P1;durP2;ratioP2;P2;SDS_P1;SDS_P2;PMS_P1;PMS_P2;Temp;Humidity;BMP_temperature;BMP_pressure;BME280_temperature;BME280_humidity;BME280_pressure;Samples;Min_cycle;Max_cycle;Signal;HPM_P1;HPM_P2
2022/01/15 00:06:40;;;;;;;95.90;87.07;;;;;;;1.17;100.00;103236.20;1840778;76;86799;-71
2022/01/15 00:12:35;;;;;;;98.90;89.80;;;;;;;1.18;100.00;103253.48;1884318;74;86506;-71
2022/01/15 00:18:17;;;;;;;97.50;88.20;;;;;;;1.34;100.00;103245.33;1930433;73;86509;-72
2022/01/15 00:24:02;;;;;;;91.60;83.40;;;;;;;1.24;100.00;103237.78;1985619;71;39432;-71
2022/01/15 00:29:46;;;;;;;87.57;79.57;;;;;;;1.07;100.00;103231.89;1845164;76;86838;-72
2022/01/15 00:35:31;;;;;;;94.67;86.20;;;;;;;1.05;100.00;103214.26;1882023;73;85580;-71
2022/01/15 00:41:17;;;;;;;90.97;83.90;;;;;;;0.77;100.00;103209.50;1909773;74;86681;-72
2022/01/15 00:47:01;;;;;;;87.87;80.53;;;;;;;0.66;100.00;103200.22;1977544;71;39664;-72
2022/01/15 00:52:46;;;;;;;86.93;79.43;;;;;;;0.73;100.00;103177.16;1847390;76;86446;-71
2022/01/15 00:58:31;;;;;;;83.93;76.43;;;;;;;0.83;100.00;103184.23;1886772;74;86706;-71
2022/01/15 01:04:15;;;;;;;86.13;78.73;;;;;;;0.91;100.00;103177.94;1899564;72;86488;-71
2022/01/15 01:10:08;;;;;;;87.17;78.63;;;;;;;0.83;100.00;103166.45;1978313;71;39729;-71
2022/01/15 01:28:02;;;;;;;89.43;81.60;;;;;;;0.83;100.00;103150.03;1982909;71;39618;-72
2022/01/15 01:33:47;;;;;;;94.90;85.97;;;;;;;1.09;100.00;103140.88;1835580;76;86347;-73
2022/01/15 01:39:38;;;;;;;89.10;81.57;;;;;;;1.14;100.00;103128.92;1880141;73;86316;-71
2022/01/15 01:45:19;;;;;;;81.60;74.63;;;;;;;0.54;100.00;103121.36;1910154;74;86023;-72
2022/01/15 01:51:03;;;;;;;85.20;77.73;;;;;;;0.49;100.00;103112.28;1984471;71;39663;-71
2022/01/15 01:56:49;;;;;;;77.10;70.50;;;;;;;0.57;100.00;103113.67;1827688;76;86137;-72
2022/01/15 02:02:36;;;;;;;84.37;77.27;;;;;;;0.74;100.00;103106.39;1884057;74;86506;-72
2022/01/15 02:08:19;;;;;;;83.13;75.93;;;;;;;0.70;100.00;103099.03;1916954;74;85370;-72
2022/01/15 02:14:03;;;;;;;83.20;75.83;;;;;;;0.80;100.00;103094.30;1927851;73;86557;-72
2022/01/15 02:20:09;;;;;;;84.73;76.50;;;;;;;0.86;100.00;103084.54;1839727;76;86496;-73
2022/01/15 02:25:45;;;;;;;88.40;80.03;;;;;;;1.05;100.00;103087.50;1833274;76;86010;-73
2022/01/15 02:31:31;;;;;;;89.00;80.77;;;;;;;0.82;100.00;103086.77;1884440;74;86123;-72
2022/01/15 02:37:16;;;;;;;89.30;80.50;;;;;;;0.95;100.00;103079.95;1936038;73;86493;-72
2022/01/15 02:43:04;;;;;;;85.93;77.90;;;;;;;1.01;100.00;103077.92;1975644;71;39697;-72
2022/01/15 02:48:51;;;;;;;88.93;80.53;;;;;;;0.84;100.00;103066.95;1802176;78;86404;-71
2022/01/15 02:54:37;;;;;;;87.37;79.13;;;;;;;0.96;100.00;103057.04;1909599;74;84897;-70
2022/01/15 03:00:22;;;;;;;85.27;76.83;;;;;;;1.04;100.00;103059.28;1885042;75;86521;-71
2022/01/15 03:06:06;;;;;;;88.67;80.13;;;;;;;0.85;100.00;103044.55;1904049;73;86355;-72
2022/01/15 03:11:50;;;;;;;92.10;83.37;;;;;;;0.79;100.00;103042.47;1892354;74;86332;-71
2022/01/15 03:17:35;;;;;;;89.30;80.87;;;;;;;0.89;100.00;103031.73;1799561;78;86537;-72
2022/01/15 03:23:21;;;;;;;90.73;82.43;;;;;;;1.03;100.00;103026.63;1889352;73;86880;-71
2022/01/15 03:29:06;;;;;;;89.47;80.37;;;;;;;0.98;100.00;103023.53;1914891;73;86546;-71
2022/01/15 03:34:50;;;;;;;89.43;81.07;;;;;;;0.91;100.00;103038.39;1891135;74;85460;-72
2022/01/15 03:40:36;;;;;;;87.83;79.00;;;;;;;0.96;100.00;103030.53;1809560;78;86517;-70
2022/01/15 03:46:23;;;;;;;86.83;78.57;;;;;;;1.15;100.00;103030.23;1869315;75;86093;-71
2022/01/15 03:52:08;;;;;;;89.80;81.30;;;;;;;1.01;100.00;103025.92;1905040;72;86167;-71
2022/01/15 03:57:54;;;;;;;90.80;82.57;;;;;;;0.87;100.00;103031.03;1974747;71;39652;-71
2022/01/15 04:06:53;;;;;;;85.07;77.00;;;;;;;0.98;100.00;103013.45;1981672;71;39830;-71
2022/01/15 04:12:38;;;;;;;85.37;77.77;;;;;;;0.90;100.00;103001.09;1877840;74;86594;-72
2022/01/15 04:18:25;;;;;;;82.77;75.53;;;;;;;0.72;100.00;102993.06;1888049;75;86189;-72
2022/01/15 04:24:09;;;;;;;86.90;77.43;;;;;;;0.45;100.00;102983.25;1913327;72;86122;-71
2022/01/15 04:30:01;;;;;;;85.50;77.37;;;;;;;0.42;100.00;102986.33;1980725;71;39599;-71
2022/01/15 04:35:42;;;;;;;90.80;75.40;;;;;;;0.18;100.00;102983.99;1959572;72;85470;-72
2022/01/15 04:41:27;;;;;;;123.57;80.07;;;;;;;0.24;100.00;102986.94;1870672;75;86490;-72
2022/01/15 04:47:11;;;;;;;87.83;79.50;;;;;;;0.44;100.00;102986.14;1910092;74;86057;-71
2022/01/15 04:52:55;;;;;;;86.67;77.93;;;;;;;0.41;100.00;102974.18;1987382;71;39693;-72
2022/01/15 04:58:39;;;;;;;88.40;79.90;;;;;;;0.67;100.00;102972.19;1827186;76;85293;-71
2022/01/15 05:04:22;;;;;;;89.23;80.47;;;;;;;0.76;100.00;102966.22;1928777;74;86523;-72
2022/01/15 05:10:06;;;;;;;88.43;79.00;;;;;;;0.75;100.00;102951.69;1906624;74;86384;-71
2022/01/15 05:15:50;;;;;;;91.80;82.60;;;;;;;0.68;100.00;102947.07;1908842;74;86478;-71
2022/01/15 05:21:35;;;;;;;93.17;81.00;;;;;;;0.58;100.00;102940.89;1808015;78;85300;-72
2022/01/15 05:27:21;;;;;;;94.10;81.13;;;;;;;0.81;100.00;102933.21;1870994;75;85530;-72
2022/01/15 05:33:05;;;;;;;116.73;87.50;;;;;;;0.70;100.00;102936.29;1915124;72;86235;-71
2022/01/15 05:38:49;;;;;;;104.37;81.80;;;;;;;0.57;100.00;102930.46;1810872;78;85644;-71
2022/01/15 05:44:34;;;;;;;91.53;81.83;;;;;;;0.83;100.00;102942.12;1809091;78;86525;-71
2022/01/15 05:50:18;;;;;;;102.93;81.23;;;;;;;0.95;100.00;102928.08;1910884;74;86274;-71
2022/01/15 05:56:05;;;;;;;96.13;85.97;;;;;;;1.20;100.00;102928.41;1946133;71;39791;-71
2022/01/15 06:01:48;;;;;;;100.53;87.43;;;;;;;0.98;100.00;102927.77;1802298;78;86479;-71
2022/01/15 06:07:31;;;;;;;97.80;84.07;;;;;;;1.00;100.00;102922.95;1841883;76;85802;-72
2022/01/15 06:13:18;;;;;;;91.97;81.47;;;;;;;1.17;100.00;102926.03;1909314;74;86378;-72
2022/01/15 06:19:02;;;;;;;90.60;81.00;;;;;;;1.33;100.00;102904.95;1959785;71;39704;-72
2022/01/15 06:28:02;;;;;;;95.13;83.73;;;;;;;1.44;100.00;102895.53;1973471;71;39649;-72
2022/01/15 06:33:46;;;;;;;106.30;84.40;;;;;;;1.43;100.00;102888.34;1850494;76;86695;-71
2022/01/15 06:39:30;;;;;;;98.73;84.23;;;;;;;1.59;100.00;102890.16;1879487;74;86556;-72
2022/01/15 06:45:15;;;;;;;94.20;77.67;;;;;;;1.61;100.00;102885.38;1904175;72;85554;-72
2022/01/15 06:50:59;;;;;;;97.87;81.77;;;;;;;1.70;100.00;102894.77;1932545;71;39700;-72
2022/01/15 06:56:44;;;;;;;100.10;83.90;;;;;;;1.69;100.00;102889.45;1847616;75;86522;-72
2022/01/15 07:02:31;;;;;;;113.40;84.73;;;;;;;1.72;100.00;102876.76;1882122;73;86231;-72
2022/01/15 07:08:17;;;;;;;160.30;85.87;;;;;;;1.78;100.00;102871.95;1904045;73;86272;-73
2022/01/15 07:14:04;;;;;;;106.97;78.20;;;;;;;1.76;100.00;102862.53;1980426;71;39945;-72
2022/01/15 07:19:51;;;;;;;97.70;76.73;;;;;;;1.76;100.00;102868.52;1984533;72;86167;-73
2022/01/15 07:25:37;;;;;;;92.87;72.90;;;;;;;2.01;100.00;102870.11;1808042;78;86379;-70
2022/01/15 07:31:22;;;;;;;94.00;70.60;;;;;;;2.08;100.00;102867.52;1881146;73;86329;-70
2022/01/15 07:37:06;;;;;;;106.60;71.87;;;;;;;2.33;100.00;102878.67;1922749;73;85342;-71
2022/01/15 07:42:52;;;;;;;146.03;71.63;;;;;;;2.27;100.00;102902.69;1978666;71;39418;-68
2022/01/15 07:48:36;;;;;;;125.73;71.80;;;;;;;2.21;100.00;102900.17;1882050;74;86439;-72
2022/01/15 07:54:20;;;;;;;172.60;72.10;;;;;;;2.16;100.00;102899.00;1889375;74;86663;-74
2022/01/15 08:00:06;;;;;;;141.60;70.37;;;;;;;2.26;100.00;102901.00;1817963;77;86769;-73
2022/01/15 08:05:49;;;;;;;98.23;66.07;;;;;;;2.49;100.00;102899.12;1794285;78;86444;-70
2022/01/15 08:11:33;;;;;;;178.77;75.33;;;;;;;2.78;100.00;102905.28;1801673;78;86355;-75
2022/01/15 08:17:17;;;;;;;143.70;72.33;;;;;;;2.54;100.00;102906.30;1908149;74;86414;-72
2022/01/15 08:23:01;;;;;;;100.73;66.23;;;;;;;2.39;100.00;102901.78;1977770;71;39710;-72
2022/01/15 08:28:46;;;;;;;220.93;74.80;;;;;;;2.45;100.00;102897.78;1836018;76;86829;-70
2022/01/15 08:34:30;;;;;;;96.27;59.57;;;;;;;2.54;100.00;102899.95;1871706;75;86740;-73
2022/01/15 08:40:17;;;;;;;165.87;58.80;;;;;;;2.75;100.00;102895.50;1923016;73;86830;-69
2022/01/15 08:46:02;;;;;;;144.70;64.47;;;;;;;2.56;100.00;102891.89;1982398;71;39753;-72
2022/01/15 08:51:49;;;;;;;107.20;53.60;;;;;;;3.05;100.00;102896.95;1810611;78;86517;-75
2022/01/15 08:57:34;;;;;;;180.10;61.23;;;;;;;2.91;100.00;102889.56;1809552;78;86368;-74
2022/01/15 09:03:23;;;;;;;109.27;55.47;;;;;;;2.85;100.00;102882.91;1887441;74;86693;-76
2022/01/15 09:09:06;;;;;;;86.50;52.47;;;;;;;2.89;100.00;102884.24;1945597;73;86035;-74
2022/01/15 09:14:52;;;;;;;150.43;54.17;;;;;;;2.92;100.00;102881.63;1893293;74;87039;-67
2022/01/15 09:20:37;;;;;;;99.53;52.70;;;;;;;3.02;100.00;102884.47;1890163;74;86938;-74
2022/01/15 09:26:25;;;;;;;136.07;53.37;;;;;;;2.78;100.00;102849.53;1866940;76;86411;-68
2022/01/15 09:32:09;;;;;;;119.60;56.37;;;;;;;3.02;100.00;102884.47;1914000;72;86385;-73
2022/01/15 09:37:56;;;;;;;98.63;51.87;;;;;;;3.01;100.00;102886.88;1986327;71;39380;-71
2022/01/15 09:43:42;;;;;;;121.23;52.80;;;;;;;3.22;100.00;102893.02;1968863;71;85449;-72
2022/01/15 09:49:27;;;;;;;106.23;51.07;;;;;;;2.99;100.00;102887.59;1908965;74;86148;-69
2022/01/15 09:55:14;;;;;;;121.47;53.13;;;;;;;3.08;100.00;102871.34;1914783;73;86427;-68
2022/01/15 10:00:59;;;;;;;131.73;57.33;;;;;;;3.09;100.00;102872.20;1981144;71;39560;-71
2022/01/15 10:07:07;;;;;;;113.07;54.13;;;;;;;3.10;100.00;102876.16;1973509;71;86308;-70
2022/01/15 10:12:52;;;;;;;137.77;60.00;;;;;;;3.26;100.00;102862.77;1984087;71;39635;-70
2022/01/15 10:18:42;;;;;;;86.73;53.07;;;;;;;3.40;100.00;102860.56;1887529;74;85273;-69
2022/01/15 10:24:30;;;;;;;96.80;56.30;;;;;;;3.29;100.00;102847.81;1870953;74;86281;-70
2022/01/15 10:30:44;;;;;;;121.37;59.53;;;;;;;3.41;100.00;102868.28;1886641;74;86653;-71
2022/01/15 10:36:34;;;;;;;95.93;56.07;;;;;;;3.42;100.00;102869.48;1892860;73;86464;-71
2022/01/15 10:42:32;;;;;;;109.37;57.23;;;;;;;3.34;100.00;102863.22;1880560;75;86550;-70
2022/01/15 10:48:27;;;;;;;107.13;58.50;;;;;;;3.47;100.00;102864.76;1929362;72;87448;-72
2022/01/15 10:54:14;;;;;;;77.87;57.23;;;;;;;3.41;100.00;102859.52;1923924;72;85883;-72
2022/01/15 11:00:12;;;;;;;92.20;61.20;;;;;;;3.42;100.00;102854.89;1949181;71;39699;-73
2022/01/15 11:05:57;;;;;;;100.77;61.77;;;;;;;3.64;100.00;102844.28;1986882;71;39783;-76
2022/01/15 11:11:56;;;;;;;95.87;63.47;;;;;;;3.74;100.00;102839.36;1841556;76;86319;-68
2022/01/15 11:17:42;;;;;;;96.77;63.63;;;;;;;3.82;100.00;102846.64;1851503;76;86438;-72
2022/01/15 11:23:31;;;;;;;84.50;60.63;;;;;;;3.95;100.00;102845.44;1872215;75;86508;-73
2022/01/15 11:29:18;;;;;;;83.67;62.07;;;;;;;3.98;100.00;102846.45;1930439;72;86283;-70
2022/01/15 11:35:08;;;;;;;86.87;63.33;;;;;;;3.95;100.00;102833.92;1939685;73;85817;-71
2022/01/15 11:40:58;;;;;;;85.77;63.23;;;;;;;3.86;100.00;102819.09;1923208;71;39696;-69
2022/01/15 11:47:04;;;;;;;81.70;64.10;;;;;;;4.08;100.00;102809.33;1939640;71;39700;-71
2022/01/15 11:52:53;;;;;;;86.93;65.90;;;;;;;4.13;100.00;102804.62;1945326;71;39682;-73
2022/01/15 11:58:37;;;;;;;88.90;72.77;;;;;;;4.28;100.00;102807.33;1887340;74;86455;-70
2022/01/15 12:04:31;;;;;;;94.83;73.90;;;;;;;4.30;100.00;102806.07;1870341;75;86708;-74
2022/01/15 12:10:40;;;;;;;91.27;75.30;;;;;;;4.49;100.00;102805.39;1802329;78;86418;-71
2022/01/15 12:16:36;;;;;;;100.07;81.83;;;;;;;4.45;100.00;102792.26;1869617;75;85253;-73
2022/01/15 12:22:37;;;;;;;107.57;88.97;;;;;;;4.52;100.00;102790.41;1911676;74;86447;-74
2022/01/15 12:28:24;;;;;;;106.77;94.60;;;;;;;4.66;100.00;102777.62;1875762;74;86221;-71
2022/01/15 12:34:11;;;;;;;115.73;98.87;;;;;;;4.69;100.00;102772.56;1909948;74;85762;-74
2022/01/15 12:40:06;;;;;;;125.53;96.33;;;;;;;4.80;100.00;102771.14;1982113;71;39570;-72
2022/01/15 12:45:52;;;;;;;122.33;102.67;;;;;;;4.72;100.00;102772.16;1809416;78;85569;-74
2022/01/15 12:48:25;;;;;;;127.57;102.57;;;;;;;4.80;100.00;102780.78;1752543;79;940006;-71
2022/01/15 12:54:10;;;;;;;121.87;104.67;;;;;;;5.01;100.00;102768.33;1924588;71;86853;-74
2022/01/15 13:00:03;;;;;;;115.43;101.77;;;;;;;5.08;100.00;102758.75;1985821;71;39653;-71
2022/01/15 13:05:48;;;;;;;118.20;98.83;;;;;;;5.19;100.00;102759.55;1830289;76;86645;-72
2022/01/15 13:11:34;;;;;;;112.67;99.93;;;;;;;5.28;100.00;102751.45;1806506;78;86440;-71
2022/01/15 13:17:27;;;;;;;119.17;106.80;;;;;;;5.30;100.00;102742.47;1940569;72;86839;-70
2022/01/15 13:23:11;;;;;;;109.23;97.67;;;;;;;5.33;100.00;102729.13;1904773;72;86337;-70
2022/01/15 13:28:58;;;;;;;116.87;104.20;;;;;;;5.47;100.00;102724.00;1985894;71;39602;-74
2022/01/15 13:34:48;;;;;;;115.90;103.70;;;;;;;5.40;100.00;102712.59;1840857;76;86514;-74
2022/01/15 13:40:33;;;;;;;131.03;117.40;;;;;;;5.56;100.00;102705.90;1874741;74;86567;-73
2022/01/15 13:46:21;;;;;;;113.90;101.40;;;;;;;5.63;100.00;102706.23;1908178;72;86253;-72
2022/01/15 13:58:15;;;;;;;105.63;95.03;;;;;;;5.91;100.00;102695.08;1910320;74;86276;-73
2022/01/15 14:04:03;;;;;;;98.77;89.00;;;;;;;5.86;100.00;102692.09;1972328;71;39590;-74
2022/01/15 14:09:48;;;;;;;92.60;83.93;;;;;;;5.72;100.00;102689.83;1846416;76;86592;-69
2022/01/15 14:15:36;;;;;;;94.53;85.50;;;;;;;5.86;100.00;102689.33;1799847;78;86425;-70
2022/01/15 14:21:40;;;;;;;96.47;87.40;;;;;;;5.97;100.00;102692.88;1886839;74;86302;-73
2022/01/15 14:27:32;;;;;;;90.53;81.73;;;;;;;5.93;100.00;102677.80;1808051;78;86663;-74
2022/01/15 14:33:16;;;;;;;96.67;87.87;;;;;;;5.99;100.00;102678.88;1910151;74;85475;-74
2022/01/15 14:39:04;;;;;;;94.20;85.90;;;;;;;6.08;100.00;102675.69;1981050;71;39640;-73
2022/01/15 14:44:48;;;;;;;93.70;85.23;;;;;;;6.17;100.00;102677.19;1846365;76;86893;-71
2022/01/15 14:50:33;;;;;;;92.83;84.20;;;;;;;6.27;100.00;102676.77;1808945;78;85274;-70
2022/01/15 14:56:17;;;;;;;95.13;86.70;;;;;;;6.14;100.00;102669.86;1917699;74;86725;-73
2022/01/15 15:02:01;;;;;;;96.03;87.57;;;;;;;6.12;100.00;102670.63;1980392;71;39774;-70
2022/01/15 15:07:44;;;;;;;95.80;87.00;;;;;;;6.08;100.00;102665.18;1839508;76;86442;-70
2022/01/15 15:13:30;;;;;;;98.60;90.10;;;;;;;6.19;100.00;102668.70;1881790;74;86750;-71
2022/01/15 15:19:14;;;;;;;92.97;84.57;;;;;;;6.01;100.00;102665.72;1908580;73;86334;-74
2022/01/15 15:25:00;;;;;;;97.07;88.70;;;;;;;6.01;100.00;102661.05;1928720;71;39794;-69
2022/01/15 15:30:48;;;;;;;96.07;87.37;;;;;;;6.11;100.00;102657.35;1837964;76;85506;-74
2022/01/15 15:36:33;;;;;;;97.90;89.03;;;;;;;6.12;100.00;102660.97;1798379;78;86755;-75
2022/01/15 15:42:19;;;;;;;97.40;88.77;;;;;;;6.10;100.00;102658.41;1907735;73;86268;-74
2022/01/15 15:48:03;;;;;;;94.20;85.97;;;;;;;6.14;100.00;102661.06;1985810;71;39517;-70
2022/01/15 15:53:47;;;;;;;94.90;86.73;;;;;;;6.25;100.00;102649.90;1848316;76;86505;-71
2022/01/15 15:59:30;;;;;;;96.47;87.93;;;;;;;6.18;100.00;102645.77;1869418;75;86726;-73
2022/01/15 16:05:14;;;;;;;93.93;85.37;;;;;;;6.19;100.00;102637.83;1889832;74;86782;-73
2022/01/15 16:10:56;;;;;;;91.40;82.80;;;;;;;6.13;100.00;102636.42;1986399;71;39663;-73
2022/01/15 16:19:58;;;;;;;94.07;85.37;;;;;;;6.14;100.00;102634.00;1964177;71;39644;-72
2022/01/15 16:25:45;;;;;;;93.00;84.17;;;;;;;6.19;100.00;102628.17;1842486;75;86293;-72
2022/01/15 16:31:32;;;;;;;92.70;83.40;;;;;;;6.07;100.00;102631.25;1872609;74;85781;-71
2022/01/15 16:37:16;;;;;;;98.47;88.70;;;;;;;6.00;100.00;102615.21;1910121;74;86529;-73
2022/01/15 16:43:07;;;;;;;97.20;87.90;;;;;;;5.67;100.00;102608.27;1928350;71;39762;-71
2022/01/15 16:48:52;;;;;;;91.90;82.40;;;;;;;5.30;100.00;102619.84;1980365;71;39808;-73
2022/01/15 16:54:40;;;;;;;95.93;86.43;;;;;;;5.30;100.00;102619.84;1877113;75;85819;-71
2022/01/15 17:00:24;;;;;;;92.90;83.23;;;;;;;5.01;100.00;102619.61;1885899;75;86123;-73
2022/01/15 17:06:07;;;;;;;92.00;82.37;;;;;;;5.08;100.00;102618.28;1911174;73;86492;-72
2022/01/15 17:11:51;;;;;;;91.67;82.57;;;;;;;4.84;100.00;102619.11;1946039;71;39532;-72
2022/01/15 17:17:37;;;;;;;97.20;87.30;;;;;;;4.67;100.00;102617.75;1880756;75;85648;-73
2022/01/15 17:23:28;;;;;;;100.13;89.97;;;;;;;4.69;100.00;102623.06;1873858;75;86612;-72
2022/01/15 17:29:10;;;;;;;105.23;94.63;;;;;;;4.62;100.00;102624.94;1913176;72;86887;-72
2022/01/15 17:34:55;;;;;;;106.43;95.27;;;;;;;4.57;100.00;102620.89;1981377;71;39745;-73
2022/01/15 17:40:41;;;;;;;101.97;91.00;;;;;;;4.72;100.00;102627.63;1848984;76;86093;-74
2022/01/15 17:46:26;;;;;;;102.73;91.67;;;;;;;4.80;100.00;102622.47;1904611;73;86443;-75
2022/01/15 17:52:10;;;;;;;107.57;94.77;;;;;;;4.75;100.00;102636.03;1909584;73;86185;-75
2022/01/15 17:57:54;;;;;;;106.07;94.40;;;;;;;4.95;100.00;102621.83;1985938;71;39582;-74
2022/01/15 18:03:40;;;;;;;110.27;98.13;;;;;;;4.91;100.00;102626.05;1841875;75;86257;-75
2022/01/15 18:09:29;;;;;;;110.50;98.53;;;;;;;4.95;100.00;102624.58;1871824;75;86164;-76
2022/01/15 18:15:11;;;;;;;115.30;101.70;;;;;;;4.84;100.00;102631.50;1911370;72;86687;-75
2022/01/15 18:20:55;;;;;;;120.00;105.73;;;;;;;5.08;100.00;102632.91;1981282;70;39516;-75
2022/01/15 18:26:42;;;;;;;116.67;103.90;;;;;;;5.09;100.00;102634.61;1833475;76;86311;-75
2022/01/15 18:32:30;;;;;;;124.00;108.97;;;;;;;4.99;100.00;102637.73;1903100;73;86306;-71
2022/01/15 18:38:16;;;;;;;123.43;109.87;;;;;;;4.95;100.00;102641.95;1918193;74;86550;-74
2022/01/15 18:44:00;;;;;;;118.93;104.93;;;;;;;5.14;100.00;102636.19;1984456;71;40405;-72
2022/01/15 18:49:44;;;;;;;116.07;103.67;;;;;;;4.93;100.00;102637.69;1975260;69;86170;-74
2022/01/15 18:55:29;;;;;;;115.47;103.07;;;;;;;5.10;100.00;102636.28;1875079;74;86452;-76
2022/01/15 19:01:14;;;;;;;115.70;103.40;;;;;;;5.15;100.00;102654.43;1910897;74;86181;-74
2022/01/15 19:06:57;;;;;;;116.73;104.57;;;;;;;5.22;100.00;102683.40;1937045;71;39534;-74
2022/01/15 19:12:43;;;;;;;112.30;100.33;;;;;;;5.08;100.00;102689.38;1832524;76;86691;-73
2022/01/15 19:18:28;;;;;;;110.90;98.57;;;;;;;5.03;100.00;102671.22;1880624;74;86860;-73
2022/01/15 19:24:17;;;;;;;112.20;100.33;;;;;;;5.26;100.00;102730.16;1936091;73;86480;-74
2022/01/15 19:29:58;;;;;;;103.00;92.00;;;;;;;5.17;100.00;102576.58;1982744;71;39523;-74
2022/01/15 19:35:42;;;;;;;106.27;95.50;;;;;;;5.24;100.00;102539.39;1845128;76;86520;-74
2022/01/15 19:41:28;;;;;;;110.57;99.87;;;;;;;5.36;100.00;102552.34;1887478;74;86303;-74
2022/01/15 19:47:15;;;;;;;109.33;99.23;;;;;;;5.39;100.00;102586.92;1950068;72;86303;-74
2022/01/15 19:53:01;;;;;;;109.47;99.00;;;;;;;5.37;100.00;102616.05;1973488;71;39653;-74
2022/01/15 19:58:45;;;;;;;109.10;98.70;;;;;;;5.20;100.00;102599.57;1891174;74;86763;-74
2022/01/15 20:07:45;;;;;;;108.30;97.97;;;;;;;5.16;100.00;102596.05;1970817;69;86247;-75
2022/01/15 20:13:30;;;;;;;107.83;97.43;;;;;;;5.26;100.00;102622.70;1882399;73;86215;-74
2022/01/15 20:19:15;;;;;;;102.60;92.73;;;;;;;5.24;100.00;102621.52;1915127;74;86008;-76
2022/01/15 20:25:00;;;;;;;104.13;94.00;;;;;;;5.20;100.00;102618.00;1980107;71;39560;-73
2022/01/15 20:30:45;;;;;;;102.30;93.10;;;;;;;5.17;100.00;102606.88;1928395;72;86144;-76
2022/01/15 20:36:29;;;;;;;103.70;94.00;;;;;;;5.14;100.00;102546.67;1905198;73;86841;-72
2022/01/15 20:42:16;;;;;;;102.93;92.97;;;;;;;5.15;100.00;102549.75;1907218;72;85313;-75
2022/01/15 20:48:03;;;;;;;101.67;91.87;;;;;;;5.15;100.00;102569.03;1923677;71;39672;-73
2022/01/15 20:53:49;;;;;;;103.43;93.47;;;;;;;5.05;100.00;102585.09;1808236;78;85648;-75
2022/01/15 20:59:32;;;;;;;103.57;93.77;;;;;;;5.14;100.00;102606.42;1841064;76;85861;-73
2022/01/15 21:05:17;;;;;;;95.33;86.00;;;;;;;5.01;100.00;102609.45;1961409;72;86406;-75
2022/01/15 21:11:00;;;;;;;97.13;87.87;;;;;;;5.11;100.00;102613.73;1980262;71;40103;-72
2022/01/15 21:16:44;;;;;;;100.17;90.67;;;;;;;5.22;100.00;102636.56;1962318;72;85522;-75
2022/01/15 21:22:29;;;;;;;92.37;83.47;;;;;;;5.29;100.00;102635.53;1871655;75;86742;-75
2022/01/15 21:28:13;;;;;;;97.97;88.50;;;;;;;5.17;100.00;102630.30;1943609;73;86479;-73
2022/01/15 21:33:57;;;;;;;90.63;81.90;;;;;;;5.24;100.00;102635.29;1975875;71;39571;-73
2022/01/15 21:39:41;;;;;;;93.03;83.93;;;;;;;5.19;100.00;102619.91;1971686;72;85449;-74
2022/01/15 21:45:27;;;;;;;91.00;81.90;;;;;;;5.12;100.00;102614.05;1896324;74;86464;-71
2022/01/15 21:51:14;;;;;;;91.43;82.30;;;;;;;5.26;100.00;102622.70;1932287;73;86331;-70
2022/01/15 21:56:59;;;;;;;89.50;80.50;;;;;;;5.41;100.00;102628.88;1985400;71;39895;-71
2022/01/15 22:02:43;;;;;;;92.10;83.37;;;;;;;5.38;100.00;102626.02;1843773;76;86461;-73
2022/01/15 22:08:28;;;;;;;95.63;86.87;;;;;;;5.30;100.00;102635.86;1876839;74;86480;-72
2022/01/15 22:14:13;;;;;;;94.33;85.00;;;;;;;5.21;100.00;102616.95;1934835;73;86637;-72
2022/01/15 22:19:58;;;;;;;97.23;87.50;;;;;;;5.29;100.00;102623.13;1981228;71;39587;-72
2022/01/15 22:25:45;;;;;;;94.70;85.70;;;;;;;5.36;100.00;102641.05;1892219;74;86506;-71
2022/01/15 22:31:30;;;;;;;97.20;88.07;;;;;;;5.31;100.00;102623.75;1872892;75;86683;-72
2022/01/15 22:37:14;;;;;;;95.93;86.53;;;;;;;5.30;100.00;102606.92;1915389;74;85667;-70
2022/01/15 22:42:59;;;;;;;94.00;84.80;;;;;;;5.42;100.00;102607.16;1948155;71;39576;-72
2022/01/15 22:48:45;;;;;;;96.53;86.90;;;;;;;5.55;100.00;102598.06;1860329;76;86202;-71
2022/01/15 22:54:29;;;;;;;94.53;85.33;;;;;;;5.63;100.00;102590.45;1869593;75;86314;-71
2022/01/15 23:00:28;;;;;;;96.47;87.40;;;;;;;5.71;100.00;102575.60;1932490;73;86333;-72
2022/01/15 23:06:11;;;;;;;93.40;84.60;;;;;;;5.73;100.00;102566.60;1940588;73;86337;-69
2022/01/15 23:12:03;;;;;;;94.73;85.63;;;;;;;5.85;100.00;102575.94;1986128;71;39637;-71
2022/01/15 23:17:41;;;;;;;90.70;82.03;;;;;;;5.78;100.00;102569.02;1972961;71;86368;-72
2022/01/15 23:23:28;;;;;;;93.10;84.70;;;;;;;5.71;100.00;102560.44;1883781;73;85915;-72
2022/01/15 23:29:14;;;;;;;93.33;84.67;;;;;;;5.72;100.00;102556.10;1918871;72;85758;-70
2022/01/15 23:34:58;;;;;;;91.97;83.50;;;;;;;5.41;100.00;102555.33;1976556;71;39769;-70
2022/01/15 23:40:43;;;;;;;92.57;83.73;;;;;;;5.16;100.00;102571.27;1971747;72;86499;-72
2022/01/15 23:46:44;;;;;;;93.47;85.07;;;;;;;5.06;100.00;102562.02;1904531;73;85755;-70
2022/01/15 23:52:15;;;;;;;89.93;81.63;;;;;;;5.12;100.00;102577.72;1931848;73;86127;-71
2022/01/15 23:57:59;;;;;;;98.70;89.67;;;;;;;5.20;100.00;102589.93;1986292;71;39441;-71
